sensor_id;sensor_type;location;lat;lon;timestamp;P1;durP1;ratioP1;P2;durP2;ratioP2
12177;SDS011;6152;48.728;9.256;2024-03-06T00:02:07;1.70;;;1.40;;
12177;SDS011;6152;48.728;9.256;2024-03-06T00:04:33;1.20;;;0.97;;
12177;SDS011;6152;48.728;9.256;2024-03-06T00:07:00;2.30;;;1.10;;
12177;SDS011;6152;48.728;9.256;2024-03-06T00:09:27;1.70;;;0.90;;
12177;SDS011;6152;48.728;9.256;2024-03-06T00:11:53;1.27;;;0.87;;
12177;SDS011;6152;48.728;9.256;2024-03-06T00:14:20;1.00;;;0.80;;
12177;SDS011;6152;48.728;9.256;2024-03-06T00:16:50;1.00;;;1.00;;
12177;SDS011;6152;48.728;9.256;2024-03-06T00:19:17;1.90;;;0.90;;
12177;SDS011;6152;48.728;9.256;2024-03-06T00:21:43;1.23;;;1.00;;
12177;SDS011;6152;48.728;9.256;2024-03-06T00:24:13;2.00;;;1.13;;
12177;SDS011;6152;48.728;9.256;2024-03-06T00:26:46;1.33;;;1.03;;
12177;SDS011;6152;48.728;9.256;2024-03-06T00:29:12;3.27;;;2.37;;
12177;SDS011;6152;48.728;9.256;2024-03-06T00:31:42;3.78;;;2.22;;
12177;SDS011;6152;48.728;9.256;2024-03-06T00:34:09;3.67;;;2.70;;
12177;SDS011;6152;48.728;9.256;2024-03-06T00:36:39;4.20;;;3.03;;
12177;SDS011;6152;48.728;9.256;2024-03-06T00:39:05;3.50;;;2.90;;
12177;SDS011;6152;48.728;9.256;2024-03-06T00:41:33;3.23;;;3.00;;
12177;SDS011;6152;48.728;9.256;2024-03-06T00:43:59;3.00;;;2.60;;
12177;SDS011;6152;48.728;9.256;2024-03-06T00:46:25;3.00;;;2.30;;
12177;SDS011;6152;48.728;9.256;2024-03-06T00:48:51;3.83;;;2.60;;
12177;SDS011;6152;48.728;9.256;2024-03-06T00:51:17;1.93;;;1.83;;
12177;SDS011;6152;48.728;9.256;2024-03-06T00:53:44;1.80;;;1.60;;
12177;SDS011;6152;48.728;9.256;2024-03-06T00:56:10;2.63;;;1.30;;
12177;SDS011;6152;48.728;9.256;2024-03-06T00:58:36;2.08;;;1.60;;
12177;SDS011;6152;48.728;9.256;2024-03-06T01:01:03;3.63;;;1.52;;
12177;SDS011;6152;48.728;9.256;2024-03-06T01:03:29;2.28;;;1.60;;
12177;SDS011;6152;48.728;9.256;2024-03-06T01:05:55;2.92;;;1.60;;
12177;SDS011;6152;48.728;9.256;2024-03-06T01:08:22;2.90;;;1.98;;
12177;SDS011;6152;48.728;9.256;2024-03-06T01:10:50;2.03;;;1.88;;
12177;SDS011;6152;48.728;9.256;2024-03-06T01:13:17;3.05;;;1.83;;
12177;SDS011;6152;48.728;9.256;2024-03-06T01:15:43;1.83;;;1.67;;
12177;SDS011;6152;48.728;9.256;2024-03-06T01:18:09;1.60;;;1.50;;
12177;SDS011;6152;48.728;9.256;2024-03-06T01:20:35;1.98;;;1.33;;
12177;SDS011;6152;48.728;9.256;2024-03-06T01:23:02;2.88;;;1.38;;
12177;SDS011;6152;48.728;9.256;2024-03-06T01:25:28;2.35;;;1.73;;
12177;SDS011;6152;48.728;9.256;2024-03-06T01:27:54;1.52;;;1.27;;
12177;SDS011;6152;48.728;9.256;2024-03-06T01:30:20;3.47;;;1.60;;
12177;SDS011;6152;48.728;9.256;2024-03-06T01:32:47;2.53;;;1.70;;
12177;SDS011;6152;48.728;9.256;2024-03-06T01:35:13;2.70;;;1.42;;
12177;SDS011;6152;48.728;9.256;2024-03-06T01:37:39;1.65;;;1.40;;
12177;SDS011;6152;48.728;9.256;2024-03-06T01:40:05;5.20;;;2.00;;
12177;SDS011;6152;48.728;9.256;2024-03-06T01:42:32;1.90;;;1.50;;
12177;SDS011;6152;48.728;9.256;2024-03-06T01:44:58;1.88;;;1.38;;
12177;SDS011;6152;48.728;9.256;2024-03-06T01:47:25;2.63;;;1.40;;
12177;SDS011;6152;48.728;9.256;2024-03-06T01:49:51;2.17;;;1.40;;
12177;SDS011;6152;48.728;9.256;2024-03-06T01:52:17;5.47;;;1.55;;
12177;SDS011;6152;48.728;9.256;2024-03-06T01:54:46;2.20;;;1.60;;
12177;SDS011;6152;48.728;9.256;2024-03-06T01:57:15;1.40;;;1.30;;
12177;SDS011;6152;48.728;9.256;2024-03-06T01:59:42;1.83;;;1.33;;
12177;SDS011;6152;48.728;9.256;2024-03-06T02:02:08;3.90;;;1.52;;
12177;SDS011;6152;48.728;9.256;2024-03-06T02:04:38;1.92;;;1.42;;
12177;SDS011;6152;48.728;9.256;2024-03-06T02:07:08;2.88;;;2.00;;
12177;SDS011;6152;48.728;9.256;2024-03-06T02:09:38;4.25;;;2.83;;
12177;SDS011;6152;48.728;9.256;2024-03-06T02:12:05;6.43;;;3.40;;
12177;SDS011;6152;48.728;9.256;2024-03-06T02:14:35;7.85;;;3.60;;
12177;SDS011;6152;48.728;9.256;2024-03-06T02:17:01;5.07;;;4.25;;
12177;SDS011;6152;48.728;9.256;2024-03-06T02:19:37;8.20;;;6.57;;
12177;SDS011;6152;48.728;9.256;2024-03-06T02:22:05;8.45;;;6.80;;
12177;SDS011;6152;48.728;9.256;2024-03-06T02:24:32;10.00;;;6.93;;
12177;SDS011;6152;48.728;9.256;2024-03-06T02:26:58;11.05;;;8.10;;
12177;SDS011;6152;48.728;9.256;2024-03-06T02:29:24;9.88;;;8.00;;
12177;SDS011;6152;48.728;9.256;2024-03-06T02:31:51;12.20;;;9.13;;
12177;SDS011;6152;48.728;9.256;2024-03-06T02:34:17;12.18;;;9.35;;
12177;SDS011;6152;48.728;9.256;2024-03-06T02:36:43;12.40;;;9.25;;
12177;SDS011;6152;48.728;9.256;2024-03-06T02:39:09;14.52;;;9.05;;
12177;SDS011;6152;48.728;9.256;2024-03-06T02:41:35;13.43;;;9.05;;
12177;SDS011;6152;48.728;9.256;2024-03-06T02:44:02;12.27;;;9.38;;
12177;SDS011;6152;48.728;9.256;2024-03-06T02:46:28;11.18;;;8.05;;
12177;SDS011;6152;48.728;9.256;2024-03-06T02:48:54;12.38;;;8.27;;
12177;SDS011;6152;48.728;9.256;2024-03-06T02:51:21;11.15;;;8.30;;
12177;SDS011;6152;48.728;9.256;2024-03-06T02:53:47;12.20;;;7.85;;
12177;SDS011;6152;48.728;9.256;2024-03-06T02:56:17;10.75;;;8.02;;
12177;SDS011;6152;48.728;9.256;2024-03-06T02:58:44;9.93;;;7.88;;
12177;SDS011;6152;48.728;9.256;2024-03-06T03:01:10;10.35;;;7.28;;
12177;SDS011;6152;48.728;9.256;2024-03-06T03:03:40;10.32;;;7.70;;
12177;SDS011;6152;48.728;9.256;2024-03-06T03:06:07;13.63;;;7.50;;
12177;SDS011;6152;48.728;9.256;2024-03-06T03:08:33;9.40;;;6.78;;
12177;SDS011;6152;48.728;9.256;2024-03-06T03:10:59;13.25;;;7.35;;
12177;SDS011;6152;48.728;9.256;2024-03-06T03:13:25;9.05;;;6.53;;
12177;SDS011;6152;48.728;9.256;2024-03-06T03:15:52;10.90;;;6.93;;
12177;SDS011;6152;48.728;9.256;2024-03-06T03:18:18;11.13;;;7.70;;
12177;SDS011;6152;48.728;9.256;2024-03-06T03:20:44;12.48;;;7.50;;
12177;SDS011;6152;48.728;9.256;2024-03-06T03:23:10;9.95;;;7.00;;
12177;SDS011;6152;48.728;9.256;2024-03-06T03:25:39;9.73;;;6.40;;
12177;SDS011;6152;48.728;9.256;2024-03-06T03:28:06;7.72;;;5.50;;
12177;SDS011;6152;48.728;9.256;2024-03-06T03:30:32;7.00;;;5.10;;
12177;SDS011;6152;48.728;9.256;2024-03-06T03:32:58;7.88;;;4.88;;
12177;SDS011;6152;48.728;9.256;2024-03-06T03:35:24;6.90;;;4.93;;
12177;SDS011;6152;48.728;9.256;2024-03-06T03:37:53;6.25;;;4.68;;
12177;SDS011;6152;48.728;9.256;2024-03-06T03:40:20;7.35;;;4.75;;
12177;SDS011;6152;48.728;9.256;2024-03-06T03:42:47;5.63;;;4.72;;
12177;SDS011;6152;48.728;9.256;2024-03-06T03:45:14;5.60;;;4.07;;
12177;SDS011;6152;48.728;9.256;2024-03-06T03:47:40;6.22;;;4.60;;
12177;SDS011;6152;48.728;9.256;2024-03-06T03:50:08;7.28;;;4.45;;
12177;SDS011;6152;48.728;9.256;2024-03-06T03:52:34;7.72;;;4.15;;
12177;SDS011;6152;48.728;9.256;2024-03-06T03:55:00;5.85;;;4.47;;
12177;SDS011;6152;48.728;9.256;2024-03-06T03:57:26;4.63;;;3.88;;
12177;SDS011;6152;48.728;9.256;2024-03-06T03:59:53;8.82;;;4.78;;
12177;SDS011;6152;48.728;9.256;2024-03-06T04:02:19;6.22;;;4.35;;
12177;SDS011;6152;48.728;9.256;2024-03-06T04:04:45;5.82;;;3.88;;
12177;SDS011;6152;48.728;9.256;2024-03-06T04:07:11;5.93;;;4.28;;
12177;SDS011;6152;48.728;9.256;2024-03-06T04:09:37;5.75;;;4.15;;
12177;SDS011;6152;48.728;9.256;2024-03-06T04:12:04;7.32;;;4.00;;
12177;SDS011;6152;48.728;9.256;2024-03-06T04:14:30;5.05;;;3.92;;
12177;SDS011;6152;48.728;9.256;2024-03-06T04:16:56;7.03;;;4.25;;
12177;SDS011;6152;48.728;9.256;2024-03-06T04:19:22;5.53;;;4.20;;
12177;SDS011;6152;48.728;9.256;2024-03-06T04:21:48;5.00;;;3.97;;
12177;SDS011;6152;48.728;9.256;2024-03-06T04:24:14;4.57;;;4.18;;
12177;SDS011;6152;48.728;9.256;2024-03-06T04:26:41;6.78;;;3.47;;
12177;SDS011;6152;48.728;9.256;2024-03-06T04:29:07;8.40;;;3.78;;
12177;SDS011;6152;48.728;9.256;2024-03-06T04:31:33;5.82;;;3.65;;
12177;SDS011;6152;48.728;9.256;2024-03-06T04:34:00;5.38;;;4.00;;
12177;SDS011;6152;48.728;9.256;2024-03-06T04:36:27;4.38;;;3.67;;
12177;SDS011;6152;48.728;9.256;2024-03-06T04:38:53;5.00;;;3.60;;
12177;SDS011;6152;48.728;9.256;2024-03-06T04:41:19;4.88;;;3.63;;
12177;SDS011;6152;48.728;9.256;2024-03-06T04:43:45;5.25;;;3.80;;
12177;SDS011;6152;48.728;9.256;2024-03-06T04:46:14;9.20;;;3.58;;
12177;SDS011;6152;48.728;9.256;2024-03-06T04:48:40;9.30;;;3.47;;
12177;SDS011;6152;48.728;9.256;2024-03-06T04:51:06;6.30;;;3.63;;
12177;SDS011;6152;48.728;9.256;2024-03-06T04:53:32;6.22;;;3.40;;
12177;SDS011;6152;48.728;9.256;2024-03-06T04:55:58;5.72;;;3.53;;
12177;SDS011;6152;48.728;9.256;2024-03-06T04:58:24;3.60;;;3.20;;
12177;SDS011;6152;48.728;9.256;2024-03-06T05:00:51;6.25;;;3.80;;
12177;SDS011;6152;48.728;9.256;2024-03-06T05:03:17;4.15;;;3.55;;
12177;SDS011;6152;48.728;9.256;2024-03-06T05:05:43;7.45;;;4.28;;
12177;SDS011;6152;48.728;9.256;2024-03-06T05:08:09;7.57;;;3.85;;
12177;SDS011;6152;48.728;9.256;2024-03-06T05:10:36;7.20;;;3.67;;
12177;SDS011;6152;48.728;9.256;2024-03-06T05:13:02;5.18;;;3.95;;
12177;SDS011;6152;48.728;9.256;2024-03-06T05:15:28;7.32;;;4.55;;
12177;SDS011;6152;48.728;9.256;2024-03-06T05:17:54;5.00;;;4.13;;
12177;SDS011;6152;48.728;9.256;2024-03-06T05:20:21;5.45;;;3.83;;
12177;SDS011;6152;48.728;9.256;2024-03-06T05:22:47;5.82;;;4.18;;
12177;SDS011;6152;48.728;9.256;2024-03-06T05:25:13;7.72;;;4.25;;
12177;SDS011;6152;48.728;9.256;2024-03-06T05:27:39;6.63;;;4.57;;
12177;SDS011;6152;48.728;9.256;2024-03-06T05:30:05;6.90;;;4.15;;
12177;SDS011;6152;48.728;9.256;2024-03-06T05:32:33;10.18;;;4.10;;
12177;SDS011;6152;48.728;9.256;2024-03-06T05:34:59;4.87;;;3.93;;
12177;SDS011;6152;48.728;9.256;2024-03-06T05:37:25;5.37;;;3.97;;
12177;SDS011;6152;48.728;9.256;2024-03-06T05:39:53;8.47;;;4.23;;
12177;SDS011;6152;48.728;9.256;2024-03-06T05:42:19;5.80;;;4.17;;
12177;SDS011;6152;48.728;9.256;2024-03-06T05:44:46;4.70;;;3.60;;
12177;SDS011;6152;48.728;9.256;2024-03-06T05:47:13;7.57;;;4.17;;
12177;SDS011;6152;48.728;9.256;2024-03-06T05:49:39;5.07;;;3.53;;
12177;SDS011;6152;48.728;9.256;2024-03-06T05:52:06;6.20;;;4.30;;
12177;SDS011;6152;48.728;9.256;2024-03-06T05:54:32;6.55;;;4.70;;
12177;SDS011;6152;48.728;9.256;2024-03-06T05:57:00;9.20;;;4.47;;
12177;SDS011;6152;48.728;9.256;2024-03-06T05:59:26;9.15;;;5.03;;
12177;SDS011;6152;48.728;9.256;2024-03-06T06:01:53;8.55;;;3.97;;
12177;SDS011;6152;48.728;9.256;2024-03-06T06:04:20;6.65;;;4.07;;
12177;SDS011;6152;48.728;9.256;2024-03-06T06:06:46;5.13;;;4.00;;
12177;SDS011;6152;48.728;9.256;2024-03-06T06:09:13;5.20;;;3.78;;
12177;SDS011;6152;48.728;9.256;2024-03-06T06:11:41;5.97;;;3.83;;
12177;SDS011;6152;48.728;9.256;2024-03-06T06:14:08;5.88;;;3.63;;
12177;SDS011;6152;48.728;9.256;2024-03-06T06:16:38;7.68;;;3.95;;
12177;SDS011;6152;48.728;9.256;2024-03-06T06:19:08;9.07;;;4.57;;
12177;SDS011;6152;48.728;9.256;2024-03-06T06:21:34;9.48;;;4.65;;
12177;SDS011;6152;48.728;9.256;2024-03-06T06:24:04;7.50;;;4.70;;
12177;SDS011;6152;48.728;9.256;2024-03-06T06:26:30;6.78;;;4.50;;
12177;SDS011;6152;48.728;9.256;2024-03-06T06:28:57;7.13;;;4.45;;
12177;SDS011;6152;48.728;9.256;2024-03-06T06:31:23;6.65;;;4.20;;
12177;SDS011;6152;48.728;9.256;2024-03-06T06:33:51;7.82;;;4.50;;
12177;SDS011;6152;48.728;9.256;2024-03-06T06:36:18;7.32;;;4.72;;
12177;SDS011;6152;48.728;9.256;2024-03-06T06:38:45;7.13;;;4.03;;
12177;SDS011;6152;48.728;9.256;2024-03-06T06:41:13;7.03;;;4.80;;
12177;SDS011;6152;48.728;9.256;2024-03-06T06:43:39;6.82;;;4.53;;
12177;SDS011;6152;48.728;9.256;2024-03-06T06:46:06;9.13;;;4.90;;
12177;SDS011;6152;48.728;9.256;2024-03-06T06:48:33;7.53;;;4.57;;
12177;SDS011;6152;48.728;9.256;2024-03-06T06:51:00;8.90;;;4.53;;
12177;SDS011;6152;48.728;9.256;2024-03-06T06:53:32;9.32;;;5.07;;
12177;SDS011;6152;48.728;9.256;2024-03-06T06:55:58;9.55;;;5.43;;
12177;SDS011;6152;48.728;9.256;2024-03-06T06:58:24;6.50;;;4.70;;
12177;SDS011;6152;48.728;9.256;2024-03-06T07:00:52;6.32;;;4.72;;
12177;SDS011;6152;48.728;9.256;2024-03-06T07:03:19;9.00;;;5.43;;
12177;SDS011;6152;48.728;9.256;2024-03-06T07:05:46;7.53;;;4.85;;
12177;SDS011;6152;48.728;9.256;2024-03-06T07:08:12;6.63;;;5.00;;
12177;SDS011;6152;48.728;9.256;2024-03-06T07:10:38;7.32;;;4.70;;
12177;SDS011;6152;48.728;9.256;2024-03-06T07:13:05;6.00;;;4.43;;
12177;SDS011;6152;48.728;9.256;2024-03-06T07:15:31;9.07;;;4.97;;
12177;SDS011;6152;48.728;9.256;2024-03-06T07:17:57;6.10;;;5.18;;
12177;SDS011;6152;48.728;9.256;2024-03-06T07:20:24;12.70;;;7.18;;
12177;SDS011;6152;48.728;9.256;2024-03-06T07:22:50;8.02;;;5.72;;
12177;SDS011;6152;48.728;9.256;2024-03-06T07:25:16;9.20;;;5.10;;
12177;SDS011;6152;48.728;9.256;2024-03-06T07:27:42;6.60;;;4.82;;
12177;SDS011;6152;48.728;9.256;2024-03-06T07:30:08;8.63;;;4.60;;
12177;SDS011;6152;48.728;9.256;2024-03-06T07:32:35;8.35;;;5.32;;
12177;SDS011;6152;48.728;9.256;2024-03-06T07:35:02;8.45;;;5.95;;
12177;SDS011;6152;48.728;9.256;2024-03-06T07:37:28;10.10;;;6.30;;
12177;SDS011;6152;48.728;9.256;2024-03-06T07:39:54;9.65;;;6.93;;
12177;SDS011;6152;48.728;9.256;2024-03-06T07:42:20;13.43;;;7.90;;
12177;SDS011;6152;48.728;9.256;2024-03-06T07:44:46;8.93;;;6.35;;
12177;SDS011;6152;48.728;9.256;2024-03-06T07:47:12;9.40;;;5.75;;
12177;SDS011;6152;48.728;9.256;2024-03-06T07:49:39;9.27;;;5.65;;
12177;SDS011;6152;48.728;9.256;2024-03-06T07:52:05;7.20;;;5.53;;
12177;SDS011;6152;48.728;9.256;2024-03-06T07:54:31;9.23;;;6.40;;
12177;SDS011;6152;48.728;9.256;2024-03-06T07:56:58;7.78;;;6.03;;
12177;SDS011;6152;48.728;9.256;2024-03-06T07:59:24;10.90;;;6.03;;
12177;SDS011;6152;48.728;9.256;2024-03-06T08:01:50;9.82;;;7.85;;
12177;SDS011;6152;48.728;9.256;2024-03-06T08:04:17;11.55;;;6.68;;
12177;SDS011;6152;48.728;9.256;2024-03-06T08:06:43;9.32;;;5.85;;
12177;SDS011;6152;48.728;9.256;2024-03-06T08:09:09;7.38;;;6.20;;
12177;SDS011;6152;48.728;9.256;2024-03-06T08:11:36;11.80;;;6.60;;
12177;SDS011;6152;48.728;9.256;2024-03-06T08:14:02;12.65;;;6.90;;
12177;SDS011;6152;48.728;9.256;2024-03-06T08:16:28;8.80;;;7.32;;
12177;SDS011;6152;48.728;9.256;2024-03-06T08:18:55;10.02;;;7.05;;
12177;SDS011;6152;48.728;9.256;2024-03-06T08:21:24;9.77;;;7.00;;
12177;SDS011;6152;48.728;9.256;2024-03-06T08:23:50;10.20;;;8.10;;
12177;SDS011;6152;48.728;9.256;2024-03-06T08:26:17;10.93;;;8.47;;
12177;SDS011;6152;48.728;9.256;2024-03-06T08:28:44;13.83;;;10.00;;
12177;SDS011;6152;48.728;9.256;2024-03-06T08:31:10;10.63;;;8.23;;
12177;SDS011;6152;48.728;9.256;2024-03-06T08:33:36;11.17;;;6.80;;
12177;SDS011;6152;48.728;9.256;2024-03-06T08:36:03;9.37;;;7.53;;
12177;SDS011;6152;48.728;9.256;2024-03-06T08:38:29;11.90;;;8.80;;
12177;SDS011;6152;48.728;9.256;2024-03-06T08:40:55;11.87;;;7.97;;
12177;SDS011;6152;48.728;9.256;2024-03-06T08:43:21;8.37;;;6.97;;
12177;SDS011;6152;48.728;9.256;2024-03-06T08:45:47;8.67;;;6.50;;
12177;SDS011;6152;48.728;9.256;2024-03-06T08:48:13;9.47;;;6.90;;
12177;SDS011;6152;48.728;9.256;2024-03-06T08:50:39;9.60;;;7.23;;
12177;SDS011;6152;48.728;9.256;2024-03-06T08:53:06;8.93;;;6.57;;
12177;SDS011;6152;48.728;9.256;2024-03-06T08:55:34;8.63;;;7.40;;
12177;SDS011;6152;48.728;9.256;2024-03-06T08:58:00;12.70;;;6.80;;
12177;SDS011;6152;48.728;9.256;2024-03-06T09:00:26;10.00;;;7.40;;
12177;SDS011;6152;48.728;9.256;2024-03-06T09:02:52;11.53;;;7.50;;
12177;SDS011;6152;48.728;9.256;2024-03-06T09:05:19;9.40;;;6.73;;
12177;SDS011;6152;48.728;9.256;2024-03-06T09:07:46;11.70;;;6.53;;
12177;SDS011;6152;48.728;9.256;2024-03-06T09:10:13;8.07;;;6.00;;
12177;SDS011;6152;48.728;9.256;2024-03-06T09:12:39;8.60;;;6.13;;
12177;SDS011;6152;48.728;9.256;2024-03-06T09:15:06;8.87;;;6.10;;
12177;SDS011;6152;48.728;9.256;2024-03-06T09:17:33;8.70;;;6.23;;
12177;SDS011;6152;48.728;9.256;2024-03-06T09:20:00;9.53;;;6.00;;
12177;SDS011;6152;48.728;9.256;2024-03-06T09:22:34;8.00;;;5.83;;
12177;SDS011;6152;48.728;9.256;2024-03-06T09:25:01;10.30;;;6.27;;
12177;SDS011;6152;48.728;9.256;2024-03-06T09:27:28;9.60;;;6.67;;
12177;SDS011;6152;48.728;9.256;2024-03-06T09:29:54;7.33;;;6.47;;
12177;SDS011;6152;48.728;9.256;2024-03-06T09:32:21;7.77;;;6.10;;
12177;SDS011;6152;48.728;9.256;2024-03-06T09:34:47;9.93;;;6.63;;
12177;SDS011;6152;48.728;9.256;2024-03-06T09:37:13;8.05;;;6.95;;
12177;SDS011;6152;48.728;9.256;2024-03-06T09:39:40;12.00;;;8.50;;
12177;SDS011;6152;48.728;9.256;2024-03-06T09:42:06;9.03;;;6.63;;
12177;SDS011;6152;48.728;9.256;2024-03-06T09:44:33;11.90;;;8.20;;
12177;SDS011;6152;48.728;9.256;2024-03-06T09:46:59;10.53;;;7.87;;
12177;SDS011;6152;48.728;9.256;2024-03-06T09:49:31;11.33;;;7.50;;
12177;SDS011;6152;48.728;9.256;2024-03-06T09:51:58;10.67;;;7.80;;
12177;SDS011;6152;48.728;9.256;2024-03-06T09:54:26;10.83;;;7.90;;
12177;SDS011;6152;48.728;9.256;2024-03-06T09:56:54;10.20;;;7.70;;
12177;SDS011;6152;48.728;9.256;2024-03-06T09:59:22;10.00;;;7.47;;
12177;SDS011;6152;48.728;9.256;2024-03-06T10:01:55;12.80;;;7.97;;
12177;SDS011;6152;48.728;9.256;2024-03-06T10:04:27;10.50;;;7.20;;
12177;SDS011;6152;48.728;9.256;2024-03-06T10:06:55;10.33;;;7.83;;
12177;SDS011;6152;48.728;9.256;2024-03-06T10:09:23;12.77;;;8.43;;
12177;SDS011;6152;48.728;9.256;2024-03-06T10:11:50;11.47;;;7.83;;
12177;SDS011;6152;48.728;9.256;2024-03-06T10:14:21;10.93;;;7.83;;
12177;SDS011;6152;48.728;9.256;2024-03-06T10:16:55;12.13;;;8.93;;
12177;SDS011;6152;48.728;9.256;2024-03-06T10:19:22;10.70;;;8.50;;
12177;SDS011;6152;48.728;9.256;2024-03-06T10:21:50;9.57;;;8.23;;
12177;SDS011;6152;48.728;9.256;2024-03-06T10:24:19;11.98;;;8.75;;
12177;SDS011;6152;48.728;9.256;2024-03-06T10:26:48;10.68;;;8.32;;
12177;SDS011;6152;48.728;9.256;2024-03-06T10:29:16;14.10;;;8.98;;
12177;SDS011;6152;48.728;9.256;2024-03-06T10:34:24;15.90;;;9.00;;
12177;SDS011;6152;48.728;9.256;2024-03-06T10:39:21;12.88;;;8.93;;
12177;SDS011;6152;48.728;9.256;2024-03-06T10:41:55;13.93;;;9.48;;
12177;SDS011;6152;48.728;9.256;2024-03-06T10:44:25;14.85;;;10.00;;
12177;SDS011;6152;48.728;9.256;2024-03-06T10:46:56;16.98;;;11.07;;
12177;SDS011;6152;48.728;9.256;2024-03-06T10:49:26;17.05;;;10.02;;
12177;SDS011;6152;48.728;9.256;2024-03-06T10:52:03;15.18;;;10.00;;
12177;SDS011;6152;48.728;9.256;2024-03-06T10:54:33;13.73;;;9.75;;
12177;SDS011;6152;48.728;9.256;2024-03-06T10:57:02;11.82;;;9.52;;
12177;SDS011;6152;48.728;9.256;2024-03-06T10:59:29;14.85;;;10.35;;
12177;SDS011;6152;48.728;9.256;2024-03-06T11:01:56;13.63;;;10.55;;
12177;SDS011;6152;48.728;9.256;2024-03-06T11:04:26;13.85;;;10.20;;
12177;SDS011;6152;48.728;9.256;2024-03-06T11:07:02;16.00;;;11.07;;
12177;SDS011;6152;48.728;9.256;2024-03-06T11:09:36;14.38;;;11.18;;
12177;SDS011;6152;48.728;9.256;2024-03-06T11:12:08;17.15;;;11.80;;
12177;SDS011;6152;48.728;9.256;2024-03-06T11:14:38;15.55;;;10.80;;
12177;SDS011;6152;48.728;9.256;2024-03-06T11:17:06;16.55;;;11.57;;
12177;SDS011;6152;48.728;9.256;2024-03-06T11:28:20;18.25;;;12.48;;
12177;SDS011;6152;48.728;9.256;2024-03-06T11:30:48;19.52;;;12.52;;
12177;SDS011;6152;48.728;9.256;2024-03-06T11:33:23;15.75;;;11.52;;
12177;SDS011;6152;48.728;9.256;2024-03-06T11:41:27;19.48;;;13.43;;
12177;SDS011;6152;48.728;9.256;2024-03-06T11:43:55;20.80;;;14.00;;
12177;SDS011;6152;48.728;9.256;2024-03-06T11:46:43;20.10;;;14.60;;
12177;SDS011;6152;48.728;9.256;2024-03-06T11:49:25;21.73;;;14.60;;
12177;SDS011;6152;48.728;9.256;2024-03-06T11:51:57;21.70;;;14.27;;
12177;SDS011;6152;48.728;9.256;2024-03-06T11:54:31;22.20;;;14.60;;
12177;SDS011;6152;48.728;9.256;2024-03-06T11:56:59;21.05;;;13.95;;
12177;SDS011;6152;48.728;9.256;2024-03-06T11:59:28;23.02;;;14.85;;
12177;SDS011;6152;48.728;9.256;2024-03-06T12:01:58;23.00;;;14.68;;
12177;SDS011;6152;48.728;9.256;2024-03-06T12:04:33;20.55;;;13.68;;
12177;SDS011;6152;48.728;9.256;2024-03-06T12:07:02;19.02;;;13.90;;
12177;SDS011;6152;48.728;9.256;2024-03-06T12:09:37;19.83;;;14.45;;
12177;SDS011;6152;48.728;9.256;2024-03-06T12:12:04;20.80;;;14.10;;
12177;SDS011;6152;48.728;9.256;2024-03-06T12:14:31;20.50;;;14.40;;
12177;SDS011;6152;48.728;9.256;2024-03-06T12:17:01;22.80;;;14.18;;
12177;SDS011;6152;48.728;9.256;2024-03-06T12:19:31;20.52;;;14.40;;
12177;SDS011;6152;48.728;9.256;2024-03-06T12:22:01;21.52;;;14.60;;
12177;SDS011;6152;48.728;9.256;2024-03-06T12:24:31;21.25;;;15.00;;
12177;SDS011;6152;48.728;9.256;2024-03-06T12:27:04;27.48;;;16.80;;
12177;SDS011;6152;48.728;9.256;2024-03-06T12:29:32;20.67;;;15.10;;
12177;SDS011;6152;48.728;9.256;2024-03-06T12:32:00;21.67;;;15.40;;
12177;SDS011;6152;48.728;9.256;2024-03-06T12:34:27;26.60;;;15.80;;
12177;SDS011;6152;48.728;9.256;2024-03-06T12:36:55;22.50;;;15.20;;
12177;SDS011;6152;48.728;9.256;2024-03-06T12:39:22;23.35;;;15.45;;
12177;SDS011;6152;48.728;9.256;2024-03-06T12:41:52;23.35;;;15.30;;
12177;SDS011;6152;48.728;9.256;2024-03-06T12:44:22;20.95;;;14.52;;
12177;SDS011;6152;48.728;9.256;2024-03-06T12:46:48;24.63;;;15.65;;
12177;SDS011;6152;48.728;9.256;2024-03-06T12:49:14;25.40;;;15.50;;
12177;SDS011;6152;48.728;9.256;2024-03-06T12:51:40;22.08;;;15.10;;
12177;SDS011;6152;48.728;9.256;2024-03-06T12:54:07;23.88;;;16.10;;
12177;SDS011;6152;48.728;9.256;2024-03-06T12:56:33;22.38;;;15.15;;
12177;SDS011;6152;48.728;9.256;2024-03-06T12:59:00;24.00;;;15.43;;
12177;SDS011;6152;48.728;9.256;2024-03-06T13:01:26;23.70;;;15.52;;
12177;SDS011;6152;48.728;9.256;2024-03-06T13:03:52;21.00;;;15.00;;
12177;SDS011;6152;48.728;9.256;2024-03-06T13:06:18;24.05;;;14.35;;
12177;SDS011;6152;48.728;9.256;2024-03-06T13:08:44;22.90;;;14.93;;
12177;SDS011;6152;48.728;9.256;2024-03-06T13:11:12;20.80;;;14.25;;
12177;SDS011;6152;48.728;9.256;2024-03-06T13:13:38;21.90;;;14.57;;
12177;SDS011;6152;48.728;9.256;2024-03-06T13:16:04;22.15;;;14.52;;
12177;SDS011;6152;48.728;9.256;2024-03-06T13:18:30;24.42;;;13.95;;
12177;SDS011;6152;48.728;9.256;2024-03-06T13:20:56;22.85;;;14.38;;
12177;SDS011;6152;48.728;9.256;2024-03-06T13:23:23;21.48;;;14.52;;
12177;SDS011;6152;48.728;9.256;2024-03-06T13:25:49;21.75;;;14.63;;
12177;SDS011;6152;48.728;9.256;2024-03-06T13:28:15;24.88;;;14.45;;
12177;SDS011;6152;48.728;9.256;2024-03-06T13:30:41;24.15;;;15.23;;
12177;SDS011;6152;48.728;9.256;2024-03-06T13:33:07;27.20;;;15.73;;
12177;SDS011;6152;48.728;9.256;2024-03-06T13:35:34;20.42;;;14.57;;
12177;SDS011;6152;48.728;9.256;2024-03-06T13:38:00;24.42;;;15.85;;
12177;SDS011;6152;48.728;9.256;2024-03-06T13:40:28;22.60;;;16.20;;
12177;SDS011;6152;48.728;9.256;2024-03-06T13:42:54;23.75;;;16.17;;
12177;SDS011;6152;48.728;9.256;2024-03-06T13:45:26;24.80;;;16.15;;
12177;SDS011;6152;48.728;9.256;2024-03-06T13:47:53;22.42;;;15.90;;
12177;SDS011;6152;48.728;9.256;2024-03-06T13:50:19;24.38;;;16.30;;
12177;SDS011;6152;48.728;9.256;2024-03-06T13:52:48;25.35;;;16.50;;
12177;SDS011;6152;48.728;9.256;2024-03-06T13:55:14;24.58;;;16.52;;
12177;SDS011;6152;48.728;9.256;2024-03-06T13:57:42;22.05;;;15.27;;
12177;SDS011;6152;48.728;9.256;2024-03-06T14:00:08;23.83;;;16.08;;
12177;SDS011;6152;48.728;9.256;2024-03-06T14:02:42;22.52;;;15.93;;
12177;SDS011;6152;48.728;9.256;2024-03-06T14:05:10;22.13;;;16.42;;
12177;SDS011;6152;48.728;9.256;2024-03-06T14:07:38;23.15;;;16.63;;
12177;SDS011;6152;48.728;9.256;2024-03-06T14:10:05;23.67;;;16.42;;
12177;SDS011;6152;48.728;9.256;2024-03-06T14:12:36;25.92;;;15.50;;
12177;SDS011;6152;48.728;9.256;2024-03-06T14:15:03;23.15;;;15.60;;
12177;SDS011;6152;48.728;9.256;2024-03-06T14:17:30;23.20;;;15.70;;
12177;SDS011;6152;48.728;9.256;2024-03-06T14:19:56;22.38;;;15.60;;
12177;SDS011;6152;48.728;9.256;2024-03-06T14:22:22;22.58;;;15.70;;
12177;SDS011;6152;48.728;9.256;2024-03-06T14:24:49;27.30;;;15.98;;
12177;SDS011;6152;48.728;9.256;2024-03-06T14:27:15;25.00;;;15.77;;
12177;SDS011;6152;48.728;9.256;2024-03-06T14:29:42;25.60;;;15.63;;
12177;SDS011;6152;48.728;9.256;2024-03-06T14:32:08;24.35;;;15.90;;
12177;SDS011;6152;48.728;9.256;2024-03-06T14:34:34;22.38;;;15.57;;
12177;SDS011;6152;48.728;9.256;2024-03-06T14:37:00;25.52;;;16.02;;
12177;SDS011;6152;48.728;9.256;2024-03-06T14:39:27;23.55;;;15.60;;
12177;SDS011;6152;48.728;9.256;2024-03-06T14:41:53;22.58;;;15.48;;
12177;SDS011;6152;48.728;9.256;2024-03-06T14:44:19;24.05;;;15.70;;
12177;SDS011;6152;48.728;9.256;2024-03-06T14:46:46;25.35;;;15.93;;
12177;SDS011;6152;48.728;9.256;2024-03-06T14:49:12;25.70;;;16.38;;
12177;SDS011;6152;48.728;9.256;2024-03-06T14:51:41;23.52;;;15.48;;
12177;SDS011;6152;48.728;9.256;2024-03-06T14:54:07;20.17;;;14.63;;
12177;SDS011;6152;48.728;9.256;2024-03-06T14:56:33;21.58;;;14.45;;
12177;SDS011;6152;48.728;9.256;2024-03-06T14:58:59;21.63;;;13.77;;
12177;SDS011;6152;48.728;9.256;2024-03-06T15:01:25;19.45;;;14.13;;
12177;SDS011;6152;48.728;9.256;2024-03-06T15:03:52;20.25;;;14.05;;
12177;SDS011;6152;48.728;9.256;2024-03-06T15:06:19;21.55;;;14.70;;
12177;SDS011;6152;48.728;9.256;2024-03-06T15:08:45;20.55;;;14.57;;
12177;SDS011;6152;48.728;9.256;2024-03-06T15:11:11;20.83;;;13.57;;